createdAt,value
2023-04-22T00:01:58.658Z,9.83
2023-04-22T00:06:03.186Z,10.20
2023-04-22T00:10:07.534Z,12.90
2023-04-22T00:14:11.159Z,8.90
2023-04-22T00:18:15.076Z,11.43
2023-04-22T00:22:19.871Z,9.40
2023-04-22T00:26:23.294Z,9.90
2023-04-22T00:30:26.522Z,9.70
2023-04-22T00:34:29.747Z,10.50
2023-04-22T00:38:34.729Z,8.97
2023-04-22T00:42:39.049Z,9.63
2023-04-22T00:46:42.680Z,10.70
2023-04-22T00:50:45.834Z,8.30
2023-04-22T00:54:50.719Z,8.67
2023-04-22T00:58:56.017Z,8.70
2023-04-22T01:02:59.754Z,9.57
2023-04-22T01:07:03.463Z,8.93
2023-04-22T01:11:08.302Z,11.10
2023-04-22T01:15:13.224Z,10.20
2023-04-22T01:19:16.819Z,9.70
2023-04-22T01:23:22.855Z,10.50
2023-04-22T01:27:26.731Z,10.07
2023-04-22T01:31:30.952Z,9.57
2023-04-22T01:35:37.132Z,9.30
2023-04-22T01:39:42.374Z,10.40
2023-04-22T01:43:46.272Z,9.37
2023-04-22T01:47:49.616Z,11.43
2023-04-22T01:51:53.028Z,10.30
2023-04-22T01:55:57.675Z,8.60
2023-04-22T02:00:00.982Z,8.97
2023-04-22T02:04:04.241Z,10.40
2023-04-22T02:08:08.901Z,13.10
2023-04-22T02:12:13.381Z,10.47
2023-04-22T02:16:16.804Z,8.27
2023-04-22T02:20:20.192Z,9.33
2023-04-22T02:24:23.647Z,8.20
2023-04-22T02:28:28.250Z,9.93
2023-04-22T02:32:31.626Z,8.90
2023-04-22T02:36:35.013Z,10.27
2023-04-22T02:40:38.424Z,8.90
2023-04-22T02:44:42.933Z,7.73
2023-04-22T02:48:46.308Z,10.57
2023-04-22T02:52:49.603Z,9.00
2023-04-22T02:56:55.021Z,10.70
2023-04-22T03:00:59.685Z,10.00
2023-04-22T03:05:03.192Z,8.90
2023-04-22T03:09:06.617Z,9.73
2023-04-22T03:13:09.932Z,10.13
2023-04-22T03:17:14.467Z,10.03
2023-04-22T03:21:17.841Z,10.17
2023-04-22T03:25:21.184Z,8.13
2023-04-22T03:29:24.467Z,11.10
2023-04-22T03:33:29.141Z,11.77
2023-04-22T03:37:32.519Z,7.90
2023-04-22T03:41:35.714Z,9.10
2023-04-22T03:45:39.173Z,9.67
2023-04-22T03:49:43.920Z,10.67
2023-04-22T03:53:47.230Z,10.80
2023-04-22T03:57:50.474Z,10.90
2023-04-22T04:01:54.579Z,9.17
2023-04-22T04:06:00.357Z,8.07
2023-04-22T04:10:03.647Z,13.00
2023-04-22T04:14:06.922Z,11.50
2023-04-22T04:18:11.673Z,10.47
2023-04-22T04:22:16.255Z,9.60
2023-04-22T04:26:20.454Z,9.40
2023-04-22T04:30:25.722Z,8.57
2023-04-22T04:34:29.000Z,10.50
2023-04-22T04:38:34.305Z,8.90
2023-04-22T04:42:38.069Z,12.43
2023-04-22T04:46:41.793Z,9.40
2023-04-22T04:50:45.801Z,10.10
2023-04-22T04:54:50.506Z,11.13
2023-04-22T04:58:53.808Z,11.27
2023-04-22T05:02:57.185Z,12.97
2023-04-22T05:07:00.535Z,12.60
2023-04-22T05:11:06.104Z,9.40
2023-04-22T05:15:10.676Z,9.97
2023-04-22T05:19:13.956Z,13.70
2023-04-22T05:23:17.566Z,12.97
2023-04-22T05:27:22.357Z,12.90
2023-04-22T05:31:26.045Z,10.50
2023-04-22T05:35:29.556Z,10.33
2023-04-22T05:39:32.852Z,11.07
2023-04-22T05:43:37.648Z,11.97
2023-04-22T05:47:41.047Z,11.90
2023-04-22T05:51:44.255Z,14.00
2023-04-22T05:55:47.604Z,12.87
2023-04-22T05:59:52.508Z,11.27
2023-04-22T06:03:58.649Z,11.00
2023-04-22T06:08:02.389Z,12.67
2023-04-22T06:12:06.294Z,15.17
2023-04-22T06:16:10.951Z,15.07
2023-04-22T06:20:14.400Z,16.43
2023-04-22T06:24:17.835Z,11.37
2023-04-22T06:28:21.281Z,12.93
2023-04-22T06:32:26.096Z,18.37
2023-04-22T06:36:30.618Z,13.83
2023-04-22T06:40:34.232Z,11.77
2023-04-22T06:44:37.465Z,22.53
2023-04-22T06:48:42.241Z,26.50
2023-04-22T06:52:45.480Z,10.30
2023-04-22T06:56:49.847Z,11.40
2023-04-22T07:00:53.092Z,7.93
2023-04-22T07:04:58.006Z,8.10
2023-04-22T07:09:01.599Z,9.60
2023-04-22T07:13:04.881Z,8.50
2023-04-22T07:17:08.065Z,7.27
2023-04-22T07:21:12.760Z,9.23
2023-04-22T07:25:16.116Z,9.20
2023-04-22T07:29:19.512Z,8.33
2023-04-22T07:33:22.904Z,6.43
2023-04-22T07:37:27.742Z,7.80
2023-04-22T07:41:30.894Z,8.07
2023-04-22T07:45:34.391Z,6.90
2023-04-22T07:49:37.981Z,6.20
2023-04-22T07:53:42.848Z,6.70
2023-04-22T07:57:46.229Z,5.93
2023-04-22T08:01:49.405Z,7.00
2023-04-22T08:05:52.902Z,6.20
2023-04-22T08:09:57.707Z,7.80
2023-04-22T08:14:01.014Z,7.63
2023-04-22T08:18:04.562Z,5.70
2023-04-22T08:22:08.047Z,8.03
2023-04-22T08:26:15.261Z,6.73
2023-04-22T08:30:18.588Z,8.13
2023-04-22T08:34:22.402Z,8.43
2023-04-22T08:38:25.672Z,5.20
2023-04-22T08:42:31.832Z,5.23
2023-04-22T08:46:35.564Z,5.40
2023-04-22T08:50:40.685Z,5.40
2023-04-22T08:54:43.852Z,9.40
2023-04-22T08:58:49.693Z,5.93
2023-04-22T09:02:53.710Z,5.77
2023-04-22T09:06:57.877Z,6.40
2023-04-22T09:11:01.466Z,5.40
2023-04-22T09:15:09.024Z,5.13
2023-04-22T09:19:14.410Z,7.40
2023-04-22T09:23:17.780Z,4.93
2023-04-22T09:27:22.197Z,6.03
2023-04-22T09:31:27.126Z,8.00
2023-04-22T09:35:32.269Z,6.53
2023-04-22T09:39:35.801Z,6.73
2023-04-22T09:43:39.704Z,10.60
2023-04-22T09:47:44.456Z,6.80
2023-04-22T09:51:49.349Z,6.23
2023-04-22T09:55:56.068Z,6.33
2023-04-22T10:00:00.670Z,6.17
2023-04-22T10:04:05.492Z,6.37
2023-04-22T10:08:11.552Z,5.13
2023-04-22T10:12:23.279Z,7.53
2023-04-22T10:16:34.840Z,5.70
2023-04-22T10:20:42.792Z,6.13
2023-04-22T10:24:50.236Z,5.00
2023-04-22T10:28:54.743Z,6.43
2023-04-22T10:32:58.078Z,5.33
2023-04-22T10:37:07.063Z,6.57
2023-04-22T10:41:16.290Z,5.40
2023-04-22T10:45:20.241Z,7.60
2023-04-22T10:49:24.770Z,5.73
2023-04-22T10:53:40.749Z,4.57
2023-04-22T10:57:45.550Z,4.60
2023-04-22T11:01:48.843Z,4.40
2023-04-22T11:06:12.626Z,5.63
2023-04-22T11:10:34.013Z,5.07
2023-04-22T11:14:37.375Z,4.00
2023-04-22T11:18:40.900Z,5.27
2023-04-22T11:22:45.705Z,5.03
2023-04-22T11:26:51.408Z,5.97
2023-04-22T11:30:55.105Z,4.03
2023-04-22T11:34:59.090Z,3.50
2023-04-22T11:39:02.302Z,4.77
2023-04-22T11:43:08.168Z,4.67
2023-04-22T11:47:12.741Z,5.20
2023-04-22T11:51:15.934Z,4.00
2023-04-22T11:55:22.556Z,4.30
2023-04-22T11:59:28.626Z,4.60
2023-04-22T12:03:32.478Z,4.70
2023-04-22T12:07:35.794Z,4.47
2023-04-22T12:11:40.636Z,3.50
2023-04-22T12:15:46.334Z,5.30
2023-04-22T12:19:49.983Z,4.80
2023-04-22T12:23:55.251Z,3.80
2023-04-22T12:27:58.552Z,4.17
2023-04-22T12:32:03.232Z,4.50
2023-04-22T12:36:07.160Z,5.53
2023-04-22T12:40:11.689Z,4.40
2023-04-22T12:44:15.090Z,3.90
2023-04-22T12:48:19.986Z,3.70
2023-04-22T12:52:23.244Z,4.13
2023-04-22T12:56:26.757Z,4.00
2023-04-22T13:00:30.110Z,4.50
2023-04-22T13:04:34.889Z,5.20
2023-04-22T13:08:38.156Z,4.30
2023-04-22T13:12:41.503Z,4.70
2023-04-22T13:16:44.832Z,3.83
2023-04-22T13:20:49.424Z,4.93
2023-04-22T13:24:52.763Z,4.67
2023-04-22T13:28:56.163Z,3.77
2023-04-22T13:32:59.405Z,4.50
2023-04-22T13:37:04.230Z,4.93
2023-04-22T13:41:07.749Z,6.00
2023-04-22T13:45:12.252Z,4.17
2023-04-22T13:49:15.445Z,4.33
2023-04-22T13:53:20.173Z,3.90
2023-04-22T13:57:23.433Z,4.47
2023-04-22T14:01:27.087Z,4.63
2023-04-22T14:05:30.514Z,4.40
2023-04-22T14:09:35.724Z,4.20
2023-04-22T14:13:39.323Z,5.90
2023-04-22T14:17:42.748Z,3.90
2023-04-22T14:21:46.246Z,4.60
2023-04-22T14:25:50.916Z,4.63
2023-04-22T14:29:54.242Z,4.50
2023-04-22T14:33:57.650Z,4.57
2023-04-22T14:38:00.983Z,4.23
2023-04-22T14:42:06.171Z,5.03
2023-04-22T14:46:09.477Z,5.20
2023-04-22T14:50:12.802Z,3.80
2023-04-22T14:54:17.967Z,4.03
2023-04-22T14:58:22.959Z,4.00
2023-04-22T15:02:26.698Z,4.60
2023-04-22T15:06:30.071Z,4.40
2023-04-22T15:10:33.311Z,4.50
2023-04-22T15:14:38.319Z,4.17
2023-04-22T15:18:42.150Z,5.00
2023-04-22T15:22:46.018Z,3.87
2023-04-22T15:26:50.321Z,4.60
2023-04-22T15:30:55.177Z,4.27
2023-04-22T15:34:58.616Z,4.33
2023-04-22T15:39:03.210Z,4.60
2023-04-22T15:43:07.917Z,7.00
2023-04-22T15:47:13.549Z,5.90
2023-04-22T15:51:18.638Z,4.80
2023-04-22T15:55:22.473Z,4.40
2023-04-22T15:59:26.246Z,5.03
2023-04-22T16:03:32.122Z,5.23
2023-04-22T16:07:35.555Z,4.20
2023-04-22T16:11:38.769Z,4.27
2023-04-22T16:15:42.191Z,4.33
2023-04-22T16:19:46.972Z,5.37
2023-04-22T16:23:50.355Z,4.43
2023-04-22T16:27:54.100Z,5.90
2023-04-22T16:31:58.096Z,4.53
2023-04-22T16:36:03.756Z,4.03
2023-04-22T16:40:08.042Z,5.17
2023-04-22T16:44:11.388Z,5.97
2023-04-22T16:48:14.657Z,5.37
2023-04-22T16:52:19.453Z,5.50
2023-04-22T16:56:24.084Z,5.00
2023-04-22T17:00:27.805Z,5.63
2023-04-22T17:04:31.359Z,5.27
2023-04-22T17:08:37.381Z,6.13
2023-04-22T17:12:41.412Z,10.00
2023-04-22T17:16:44.581Z,4.87
2023-04-22T17:20:49.136Z,5.63
2023-04-22T17:25:02.292Z,10.03
2023-04-22T17:29:08.509Z,5.63
2023-04-22T17:33:14.939Z,4.53
2023-04-22T17:37:20.003Z,5.13
2023-04-22T17:41:30.195Z,6.70
2023-04-22T17:45:35.875Z,5.80
2023-04-22T17:49:42.636Z,9.43
2023-04-22T17:53:57.396Z,7.13
2023-04-22T17:58:17.009Z,7.00
2023-04-22T18:02:22.596Z,11.03
2023-04-22T18:06:30.099Z,11.30
2023-04-22T18:10:38.333Z,7.60
2023-04-22T18:14:44.217Z,9.60
2023-04-22T18:18:56.136Z,6.97
2023-04-22T18:23:00.381Z,10.60
2023-04-22T18:27:11.556Z,14.17
2023-04-22T18:31:26.380Z,7.97
2023-04-22T18:35:31.523Z,9.03
2023-04-22T18:39:43.514Z,10.93
2023-04-22T18:43:58.389Z,16.50
2023-04-22T18:48:05.725Z,14.63
2023-04-22T18:52:19.297Z,20.63
2023-04-22T18:56:26.957Z,11.87
2023-04-22T19:00:37.405Z,12.83
2023-04-22T19:04:46.677Z,11.30
2023-04-22T19:08:59.570Z,18.20
2023-04-22T19:13:11.300Z,16.57
2023-04-22T19:17:26.973Z,20.50
2023-04-22T19:21:43.399Z,23.40
2023-04-22T19:25:53.472Z,17.90
2023-04-22T19:29:58.955Z,18.70
2023-04-22T19:34:02.812Z,17.07
2023-04-22T19:38:11.770Z,18.70
2023-04-22T19:42:15.408Z,22.57
2023-04-22T19:46:18.807Z,24.07
2023-04-22T19:50:24.767Z,24.00
2023-04-22T19:54:31.842Z,20.27
2023-04-22T19:58:35.278Z,24.47
2023-04-22T20:02:39.425Z,22.53
2023-04-22T20:06:46.345Z,14.60
2023-04-22T20:10:54.248Z,13.40
2023-04-22T20:14:58.627Z,12.83
2023-04-22T20:19:02.245Z,11.07
2023-04-22T20:23:10.579Z,17.90
2023-04-22T20:27:17.197Z,18.27
2023-04-22T20:31:23.137Z,15.77
2023-04-22T20:35:27.249Z,13.03
2023-04-22T20:39:31.942Z,16.70
2023-04-22T20:43:36.949Z,11.37
2023-04-22T20:47:40.283Z,14.50
2023-04-22T20:51:43.685Z,10.73
2023-04-22T20:55:46.935Z,7.97
2023-04-22T20:59:51.980Z,9.43
2023-04-22T21:03:57.761Z,13.37
2023-04-22T21:08:02.285Z,16.53
2023-04-22T21:12:06.136Z,10.10
2023-04-22T21:16:12.684Z,18.30
2023-04-22T21:20:16.052Z,14.60
2023-04-22T21:24:21.129Z,8.83
2023-04-22T21:28:25.261Z,11.93
2023-04-22T21:32:29.886Z,12.90
2023-04-22T21:36:33.269Z,8.53
2023-04-22T21:40:36.937Z,14.53
2023-04-22T21:44:40.456Z,13.50
2023-04-22T21:48:45.586Z,9.23
2023-04-22T21:52:48.904Z,8.23
2023-04-22T21:56:52.661Z,9.03
2023-04-22T22:00:56.289Z,9.00
2023-04-22T22:05:01.030Z,12.93
2023-04-22T22:09:04.350Z,10.10
2023-04-22T22:13:08.028Z,9.17
2023-04-22T22:17:12.599Z,10.30
2023-04-22T22:21:18.162Z,11.40
2023-04-22T22:25:28.988Z,8.97
2023-04-22T22:29:33.929Z,10.60
2023-04-22T22:33:37.611Z,10.83
2023-04-22T22:37:42.199Z,13.27
2023-04-22T22:41:45.643Z,10.10
2023-04-22T22:45:49.065Z,10.13
2023-04-22T22:49:53.203Z,12.10
2023-04-22T22:53:57.907Z,10.83
2023-04-22T22:58:01.033Z,13.10
2023-04-22T23:02:04.456Z,19.70
2023-04-22T23:06:08.891Z,12.73
2023-04-22T23:10:13.638Z,11.03
2023-04-22T23:14:17.915Z,9.23
2023-04-22T23:18:21.174Z,12.97
2023-04-22T23:22:25.561Z,11.70
2023-04-22T23:26:30.712Z,15.60
2023-04-22T23:30:34.528Z,11.43
2023-04-22T23:34:43.034Z,10.87
2023-04-22T23:38:46.559Z,14.13
2023-04-22T23:42:51.374Z,14.23
2023-04-22T23:46:54.614Z,21.30
2023-04-22T23:50:58.100Z,15.97
2023-04-22T23:55:01.530Z,12.73
2023-04-22T23:59:07.782Z,11.73
